Lewistown, MT

7:44 PM MST on February 07, 2016 (GMT -0700)
3/4 mile S of Lewistown | | Change Station
CLOSE
Current Station
Personal Weather Station
Location: Lewistown, Mt
Elevation: 4189 ft
Nearby Weather Stations

Elev 4189 ft 47.04 °N, 109.42 °W | Updated 3 seconds ago

Clear
Clear
22.0 °F
Feels Like 22 °F
N
0.0
Wind Variable Wind from SSE
Gusts 0.0 mph

Today
High -- | Low -- °F
--% Chance of Precip.
Yesterday
High -- | Low -- °F
Precip. -- in
Pressure 30.54 in
Visibility 10.0 miles
Clouds Clear
Windchill 22 °F
Dew Point 12 °F
Humidity 66%
Rainfall 0.00 in
Snow Depth Not available.
7:35 AM 5:29 PM
Waning Crescent, 0% visible
METAR KLWT 080154Z AUTO 19006KT 10SM CLR M04/M12 A3041 RMK AO2 SLP341 T10391117
Pressure 30.54 in
Visibility 10.0 miles
Clouds Clear
Windchill 22 °F
Dew Point 12 °F
Humidity 66%
Rainfall 0.00 in
Snow Depth Not available.
7:35 AM 5:29 PM
Waning Crescent, 0% visible
METAR KLWT 080154Z AUTO 19006KT 10SM CLR M04/M12 A3041 RMK AO2 SLP341 T10391117

10-Day Weather Forecast

Almanac

Astronomy

Feb. 07, 2016 Rise Set
Actual Time
Civil Twilight
Nautical Twilight
Astronomical Twilight
Moon
Length of Visible Light
Length of Day
Tomorrow will be .
, % of the Moon is Illuminated

Today's Extremes

State Highs State Lows

Community

WunderPhotos

Upload Photos

1,891,373 photos uploaded!

WunderBlog® & News

Nearby

Air Quality

  Air Quality AQ Index Pollutant
Not available.

Snow Depth

Station Depth Elevation

Earthquake Activity

City Distance Mag. Time & Date
Minimum magnitude displayed is 2.5.

Coastal Water Temperatures

Place Temperature

Stations

Nearby Weather Stations

Station Location Temp. Windchill Dew Point Humidity Wind Precip. Elev Updated Type
                   

Watches & Warnings

There are currently no watches in effect.